Terminal Aerodrome Forecast
Issued by NWS Missoula, MT

Home | Current Version | Previous Version | Text Only | Print | Product List | Glossary On
Versions: 1 2 3 4 5 6 7 8 9 10 11 12 13 14 15 16
000
FTUS45 KMSO 201734
TAFGPI
TAF
KGPI 201734Z 2018/2118 20006KT P6SM -RA BKN030 OVC040
     FM202000 22015G25KT P6SM VCSH BKN060
     FM210200 18010KT P6SM VCSH BKN060=

USA.gov is the U.S. government's official web portal to all federal, state and local government web resources and services.